createdAt,value
2019-02-14T00:00:39.357Z,16.77
2019-02-14T00:03:09.166Z,19.73
2019-02-14T00:05:38.726Z,25.70
2019-02-14T00:08:08.239Z,29.03
2019-02-14T00:10:37.893Z,22.87
2019-02-14T00:13:08.537Z,20.80
2019-02-14T00:15:38.075Z,18.10
2019-02-14T00:18:07.661Z,23.00
2019-02-14T00:20:37.388Z,17.77
2019-02-14T00:23:06.958Z,23.27
2019-02-14T00:25:36.534Z,24.50
2019-02-14T00:28:06.136Z,18.20
2019-02-14T00:30:35.790Z,16.40
2019-02-14T00:33:05.430Z,23.97
2019-02-14T00:35:35.059Z,25.40
2019-02-14T00:38:04.632Z,20.03
2019-02-14T00:40:34.221Z,17.83
2019-02-14T00:43:03.912Z,20.63
2019-02-14T00:45:34.777Z,24.43
2019-02-14T00:48:04.461Z,20.00
2019-02-14T00:50:34.079Z,20.03
2019-02-14T00:53:03.652Z,25.83
2019-02-14T00:55:33.384Z,26.63
2019-02-14T00:58:04.018Z,18.90
2019-02-14T01:00:34.743Z,27.23
2019-02-14T01:03:04.326Z,21.80
2019-02-14T01:05:34.011Z,28.70
2019-02-14T01:08:03.664Z,24.00
2019-02-14T01:10:33.241Z,27.07
2019-02-14T01:13:02.920Z,23.37
2019-02-14T01:15:32.657Z,20.57
2019-02-14T01:18:02.220Z,24.60
2019-02-14T01:20:31.790Z,21.17
2019-02-14T01:23:01.392Z,26.80
2019-02-14T01:25:30.991Z,15.97
2019-02-14T01:28:00.567Z,19.33
2019-02-14T01:30:30.220Z,16.97
2019-02-14T01:32:59.806Z,29.67
2019-02-14T01:35:29.402Z,25.13
2019-02-14T01:37:59.142Z,26.97
2019-02-14T01:40:28.738Z,22.60
2019-02-14T01:42:58.325Z,22.43
2019-02-14T01:45:27.855Z,27.07
2019-02-14T01:47:57.386Z,24.23
2019-02-14T01:50:26.976Z,21.53
2019-02-14T01:52:56.560Z,20.97
2019-02-14T01:55:26.253Z,18.87
2019-02-14T01:57:55.942Z,27.57
2019-02-14T02:00:25.678Z,20.07
2019-02-14T02:02:55.262Z,25.63
2019-02-14T02:05:24.877Z,24.27
2019-02-14T02:07:54.439Z,23.50
2019-02-14T02:10:24.111Z,17.57
2019-02-14T02:12:53.784Z,24.07
2019-02-14T02:15:23.398Z,24.43
2019-02-14T02:17:52.980Z,20.63
2019-02-14T02:20:23.752Z,29.87
2019-02-14T02:22:53.405Z,21.83
2019-02-14T02:25:22.907Z,26.80
2019-02-14T02:27:52.560Z,22.53
2019-02-14T02:30:22.075Z,23.80
2019-02-14T02:32:51.677Z,22.30
2019-02-14T02:35:21.287Z,18.57
2019-02-14T02:37:50.834Z,13.80
2019-02-14T02:40:20.445Z,15.33
2019-02-14T02:42:50.018Z,16.67
2019-02-14T02:45:19.623Z,21.80
2019-02-14T02:47:49.285Z,18.90
2019-02-14T02:50:18.935Z,15.47
2019-02-14T02:52:48.647Z,19.77
2019-02-14T02:55:18.278Z,18.70
2019-02-14T02:57:48.872Z,25.80
2019-02-14T03:00:18.464Z,15.00
2019-02-14T03:02:48.132Z,20.80
2019-02-14T03:05:17.873Z,17.23
2019-02-14T03:07:47.538Z,15.07
2019-02-14T03:10:17.211Z,14.10
2019-02-14T03:12:46.888Z,20.73
2019-02-14T03:15:16.779Z,16.53
2019-02-14T03:17:46.335Z,18.93
2019-02-14T03:20:15.958Z,19.20
2019-02-14T03:22:45.499Z,20.07
2019-02-14T03:25:19.517Z,16.43
2019-02-14T03:27:49.091Z,11.83
2019-02-14T03:30:18.655Z,22.33
2019-02-14T03:32:48.500Z,15.53
2019-02-14T03:35:18.228Z,16.67
2019-02-14T03:37:47.930Z,21.17
2019-02-14T03:40:17.521Z,21.63
2019-02-14T03:42:47.118Z,20.33
2019-02-14T03:45:18.674Z,25.63
2019-02-14T03:47:48.233Z,15.17
2019-02-14T03:50:17.741Z,19.33
2019-02-14T03:52:47.341Z,19.57
2019-02-14T03:55:16.993Z,20.97
2019-02-14T03:57:46.640Z,18.17
2019-02-14T04:00:17.696Z,21.23
2019-02-14T04:02:47.220Z,22.63
2019-02-14T04:05:16.954Z,19.47
2019-02-14T04:07:47.519Z,23.30
2019-02-14T04:10:17.021Z,16.80
2019-02-14T04:12:46.720Z,15.50
2019-02-14T04:15:17.512Z,17.30
2019-02-14T04:17:47.083Z,15.13
2019-02-14T04:20:16.692Z,16.93
2019-02-14T04:22:46.290Z,25.73
2019-02-14T04:25:15.897Z,18.50
2019-02-14T04:27:45.550Z,15.33
2019-02-14T04:30:15.130Z,14.37
2019-02-14T04:32:44.818Z,21.37
2019-02-14T04:35:14.421Z,12.70
2019-02-14T04:37:44.035Z,16.27
2019-02-14T04:40:14.073Z,14.87
2019-02-14T04:42:43.675Z,14.80
2019-02-14T04:45:13.766Z,14.87
2019-02-14T04:47:43.838Z,17.43
2019-02-14T04:50:13.414Z,16.77
2019-02-14T04:52:43.002Z,18.77
2019-02-14T04:55:12.690Z,14.33
2019-02-14T04:57:42.274Z,12.47
2019-02-14T05:00:15.804Z,13.30
2019-02-14T05:02:45.498Z,15.60
2019-02-14T05:05:15.117Z,11.37
2019-02-14T05:07:44.688Z,10.60
2019-02-14T05:10:14.278Z,9.70
2019-02-14T05:12:43.920Z,14.97
2019-02-14T05:15:13.529Z,11.80
2019-02-14T05:17:43.115Z,14.73
2019-02-14T05:20:13.112Z,7.80
2019-02-14T05:22:42.744Z,9.87
2019-02-14T05:25:12.065Z,8.97
2019-02-14T05:27:42.745Z,10.90
2019-02-14T05:30:19.636Z,10.03
2019-02-14T05:32:49.224Z,7.87
2019-02-14T05:35:18.816Z,8.93
2019-02-14T05:37:48.496Z,8.27
2019-02-14T05:40:18.065Z,8.07
2019-02-14T05:42:47.671Z,6.87
2019-02-14T05:45:17.798Z,9.73
2019-02-14T05:47:47.458Z,7.77
2019-02-14T05:50:17.041Z,9.10
2019-02-14T05:52:46.648Z,5.73
2019-02-14T05:55:16.506Z,5.67
2019-02-14T05:57:47.861Z,4.43
2019-02-14T06:00:19.584Z,7.30
2019-02-14T06:02:49.334Z,7.27
2019-02-14T06:05:18.984Z,4.03
2019-02-14T06:07:48.491Z,5.47
2019-02-14T06:10:18.098Z,6.80
2019-02-14T06:12:47.665Z,5.70
2019-02-14T06:15:17.257Z,3.53
2019-02-14T06:17:47.024Z,4.13
2019-02-14T06:20:16.571Z,5.03
2019-02-14T06:22:46.178Z,4.87
2019-02-14T06:25:15.765Z,5.23
2019-02-14T06:27:45.362Z,7.37
2019-02-14T06:30:15.761Z,6.47
2019-02-14T06:32:45.412Z,5.33
2019-02-14T06:35:15.025Z,4.53
2019-02-14T06:37:44.607Z,3.37
2019-02-14T06:40:14.576Z,4.07
2019-02-14T06:42:44.171Z,2.53
2019-02-14T06:45:14.965Z,4.27
2019-02-14T06:47:45.519Z,3.77
2019-02-14T06:50:15.176Z,4.20
2019-02-14T06:52:44.869Z,3.00
2019-02-14T06:55:14.512Z,3.03
2019-02-14T06:57:44.180Z,2.60
2019-02-14T07:00:18.172Z,3.00
2019-02-14T07:02:47.832Z,2.97
2019-02-14T07:05:17.496Z,3.67
2019-02-14T07:07:47.106Z,3.10
2019-02-14T07:10:16.692Z,4.70
2019-02-14T07:12:46.340Z,4.23
2019-02-14T07:15:15.947Z,4.67
2019-02-14T07:17:45.683Z,2.80
2019-02-14T07:20:16.758Z,4.23
2019-02-14T07:22:46.392Z,3.00
2019-02-14T07:25:16.064Z,8.00
2019-02-14T07:27:45.667Z,2.77
2019-02-14T07:30:20.929Z,3.47
2019-02-14T07:32:50.488Z,5.47
2019-02-14T07:35:20.167Z,3.03
2019-02-14T07:37:49.715Z,4.07
2019-02-14T07:40:19.310Z,3.33
2019-02-14T07:42:48.958Z,3.10
2019-02-14T07:45:18.808Z,2.97
2019-02-14T07:47:48.392Z,3.30
2019-02-14T07:50:18.023Z,5.23
2019-02-14T07:52:47.625Z,2.60
2019-02-14T07:55:17.355Z,3.00
2019-02-14T07:57:48.101Z,3.07
2019-02-14T08:00:18.734Z,4.10
2019-02-14T08:02:48.382Z,5.90
2019-02-14T08:05:17.950Z,4.47
2019-02-14T08:07:47.560Z,3.83
2019-02-14T08:10:18.118Z,5.50
2019-02-14T08:12:47.796Z,5.93
2019-02-14T08:15:17.380Z,4.70
2019-02-14T08:17:46.967Z,6.97
2019-02-14T08:20:21.377Z,7.40
2019-02-14T08:22:50.963Z,4.30
2019-02-14T08:25:20.659Z,5.50
2019-02-14T08:27:50.234Z,4.67
2019-02-14T08:30:20.797Z,3.93
2019-02-14T08:32:50.503Z,3.33
2019-02-14T08:35:20.145Z,3.90
2019-02-14T08:37:49.783Z,6.77
2019-02-14T08:40:22.294Z,4.67
2019-02-14T08:42:51.910Z,4.20
2019-02-14T08:45:22.739Z,4.40
2019-02-14T08:47:52.252Z,3.53
2019-02-14T08:50:21.781Z,3.73
2019-02-14T08:52:51.371Z,3.73
2019-02-14T08:55:20.995Z,3.27
2019-02-14T08:57:50.592Z,4.73
2019-02-14T09:00:20.384Z,2.97
2019-02-14T09:02:49.970Z,3.77
2019-02-14T09:05:19.650Z,3.77
2019-02-14T09:07:54.568Z,5.67
2019-02-14T09:10:20.465Z,2.87
2019-02-14T09:12:50.115Z,3.17
2019-02-14T09:15:19.736Z,3.47
2019-02-14T09:17:49.332Z,3.20
2019-02-14T09:20:22.536Z,3.73
2019-02-14T09:22:53.583Z,2.13
2019-02-14T09:25:23.229Z,3.73
2019-02-14T09:27:52.854Z,2.23
2019-02-14T09:30:22.504Z,2.43
2019-02-14T09:32:52.150Z,3.97
2019-02-14T09:35:21.831Z,4.87
2019-02-14T09:37:51.420Z,2.93
2019-02-14T09:40:21.012Z,4.27
2019-02-14T09:42:50.777Z,3.20
2019-02-14T09:45:20.300Z,2.07
2019-02-14T09:47:49.943Z,4.43
2019-02-14T09:50:19.546Z,2.60
2019-02-14T09:52:49.193Z,2.07
2019-02-14T09:55:18.811Z,3.17
2019-02-14T09:57:48.398Z,3.20
2019-02-14T10:00:19.062Z,4.30
2019-02-14T10:02:48.662Z,3.60
2019-02-14T10:05:18.351Z,1.93
2019-02-14T10:07:47.922Z,3.60
2019-02-14T10:10:21.756Z,4.40
2019-02-14T10:12:52.894Z,3.87
2019-02-14T10:15:22.493Z,3.57
2019-02-14T10:17:52.086Z,4.80
2019-02-14T10:20:21.740Z,5.43
2019-02-14T10:22:51.369Z,1.90
2019-02-14T10:25:20.965Z,2.20
2019-02-14T10:27:50.697Z,4.70
2019-02-14T10:30:21.553Z,5.67
2019-02-14T10:32:51.152Z,2.03
2019-02-14T10:35:20.687Z,6.33
2019-02-14T10:37:50.348Z,3.00
2019-02-14T10:40:19.920Z,4.93
2019-02-14T10:42:49.516Z,2.67
2019-02-14T10:45:21.635Z,4.80
2019-02-14T10:47:51.255Z,3.07
2019-02-14T10:50:20.831Z,3.50
2019-02-14T10:52:50.505Z,5.37
2019-02-14T10:55:20.106Z,2.70
2019-02-14T10:57:49.862Z,3.73
2019-02-14T11:00:24.455Z,3.73
2019-02-14T11:02:56.865Z,3.57
2019-02-14T11:05:26.523Z,3.93
2019-02-14T11:07:56.191Z,3.83
2019-02-14T11:10:25.845Z,3.43
2019-02-14T11:12:55.437Z,3.27
2019-02-14T11:15:25.654Z,2.50
2019-02-14T11:17:55.302Z,4.60
2019-02-14T11:20:24.924Z,2.37
2019-02-14T11:22:54.496Z,3.17
2019-02-14T11:25:34.887Z,5.50
2019-02-14T11:28:04.494Z,5.80
2019-02-14T11:30:34.175Z,3.47
2019-02-14T11:33:03.867Z,4.03
2019-02-14T11:35:33.515Z,3.40
2019-02-14T11:38:03.034Z,3.60
2019-02-14T11:40:32.628Z,4.67
2019-02-14T11:43:02.294Z,3.93
2019-02-14T11:45:31.930Z,3.97
2019-02-14T11:48:01.566Z,3.90
2019-02-14T11:50:31.365Z,3.33
2019-02-14T11:53:00.989Z,4.37
2019-02-14T11:55:31.338Z,5.17
2019-02-14T11:58:00.920Z,4.97
2019-02-14T12:00:30.658Z,4.73
2019-02-14T12:03:00.389Z,5.53
2019-02-14T12:05:30.127Z,4.30
2019-02-14T12:07:59.741Z,3.57
2019-02-14T12:10:29.319Z,4.00
2019-02-14T12:12:58.936Z,3.83
2019-02-14T12:15:28.528Z,3.70
2019-02-14T12:17:58.296Z,3.20
2019-02-14T12:20:27.903Z,6.30
2019-02-14T12:22:57.483Z,4.97
2019-02-14T12:25:29.986Z,5.17
2019-02-14T12:27:59.594Z,4.80
2019-02-14T12:30:29.478Z,10.40
2019-02-14T12:32:59.068Z,4.37
2019-02-14T12:35:28.728Z,5.20
2019-02-14T12:37:58.322Z,3.17
2019-02-14T12:40:27.932Z,6.13
2019-02-14T12:42:57.584Z,8.13
2019-02-14T12:45:27.730Z,9.07
2019-02-14T12:47:57.322Z,4.80
2019-02-14T12:50:26.976Z,4.73
2019-02-14T12:52:56.570Z,5.73
2019-02-14T12:55:26.210Z,7.37
2019-02-14T12:57:56.021Z,5.87
2019-02-14T13:00:25.628Z,7.10
2019-02-14T13:02:55.365Z,2.90
2019-02-14T13:05:25.007Z,6.10
2019-02-14T13:07:54.682Z,4.53
2019-02-14T13:10:24.380Z,6.47
2019-02-14T13:12:53.957Z,7.70
2019-02-14T13:15:25.803Z,6.67
2019-02-14T13:17:55.476Z,5.93
2019-02-14T13:20:25.234Z,10.23
2019-02-14T13:22:54.929Z,11.30
2019-02-14T13:25:24.525Z,9.30
2019-02-14T13:27:54.098Z,5.30
2019-02-14T13:30:25.687Z,10.10
2019-02-14T13:32:55.314Z,8.27
2019-02-14T13:35:24.954Z,8.23
2019-02-14T13:37:54.547Z,7.20
2019-02-14T13:40:24.148Z,7.47
2019-02-14T13:42:53.821Z,9.17
2019-02-14T13:45:24.359Z,6.13
2019-02-14T13:47:54.042Z,6.17
2019-02-14T13:50:23.626Z,8.70
2019-02-14T13:52:53.238Z,7.20
2019-02-14T13:55:22.824Z,9.37
2019-02-14T13:57:52.424Z,8.93
2019-02-14T14:00:27.120Z,12.07
2019-02-14T14:02:56.739Z,8.20
2019-02-14T14:05:26.305Z,9.50
2019-02-14T14:07:56.000Z,7.63
2019-02-14T14:10:25.687Z,9.27
2019-02-14T14:12:55.372Z,12.33
2019-02-14T14:15:25.023Z,9.50
2019-02-14T14:17:54.596Z,6.57
2019-02-14T14:20:24.308Z,6.50
2019-02-14T14:22:53.969Z,10.10
2019-02-14T14:25:23.550Z,6.20
2019-02-14T14:27:53.231Z,8.73
2019-02-14T14:30:22.883Z,6.73
2019-02-14T14:32:52.544Z,6.10
2019-02-14T14:35:22.274Z,7.97
2019-02-14T14:37:51.896Z,9.37
2019-02-14T14:40:21.568Z,8.70
2019-02-14T14:42:52.798Z,5.93
2019-02-14T14:45:29.825Z,6.50
2019-02-14T14:47:59.479Z,7.47
2019-02-14T14:50:29.062Z,7.93
2019-02-14T14:52:58.682Z,6.53
2019-02-14T14:55:28.192Z,5.67
2019-02-14T14:57:57.772Z,8.20
2019-02-14T15:00:27.445Z,7.77
2019-02-14T15:02:56.952Z,9.03
2019-02-14T15:05:26.747Z,5.73
2019-02-14T15:07:56.374Z,7.63
2019-02-14T15:10:26.090Z,8.67
2019-02-14T15:12:56.064Z,6.50
2019-02-14T15:15:25.819Z,7.17
2019-02-14T15:17:55.406Z,5.73
2019-02-14T15:20:25.056Z,4.97
2019-02-14T15:22:56.298Z,6.17
2019-02-14T15:25:25.934Z,7.17
2019-02-14T15:27:55.556Z,9.67
2019-02-14T15:30:25.218Z,8.53
2019-02-14T15:32:54.944Z,7.63
2019-02-14T15:35:24.651Z,8.77
2019-02-14T15:37:54.310Z,8.37
2019-02-14T15:40:24.988Z,8.60
2019-02-14T15:42:54.574Z,6.00
2019-02-14T15:45:24.287Z,5.43
2019-02-14T15:47:53.856Z,6.67
2019-02-14T15:50:23.443Z,5.20
2019-02-14T15:52:54.630Z,8.10
2019-02-14T15:55:24.338Z,8.87
2019-02-14T15:57:54.018Z,10.90
2019-02-14T16:00:23.801Z,5.67
2019-02-14T16:02:53.389Z,5.83
2019-02-14T16:05:22.916Z,10.43
2019-02-14T16:07:52.536Z,8.83
2019-02-14T16:10:22.104Z,5.13
2019-02-14T16:12:52.882Z,8.37
2019-02-14T16:15:22.476Z,6.67
2019-02-14T16:17:52.149Z,9.07
2019-02-14T16:20:21.834Z,7.33
2019-02-14T16:22:51.532Z,7.90
2019-02-14T16:25:21.238Z,8.83
2019-02-14T16:27:50.854Z,6.00
2019-02-14T16:30:20.429Z,10.37
2019-02-14T16:32:50.079Z,7.77
2019-02-14T16:35:19.693Z,6.67
2019-02-14T16:37:50.622Z,5.77
2019-02-14T16:40:27.699Z,8.60
2019-02-14T16:42:51.616Z,4.27
2019-02-14T16:45:21.207Z,5.27
2019-02-14T16:47:50.845Z,8.43
2019-02-14T16:50:20.445Z,9.33
2019-02-14T16:52:50.039Z,7.00
2019-02-14T16:55:19.624Z,9.57
2019-02-14T16:57:49.323Z,4.57
2019-02-14T17:00:19.195Z,8.43
2019-02-14T17:02:48.674Z,5.83
2019-02-14T17:05:18.266Z,8.47
2019-02-14T17:07:47.875Z,6.60
2019-02-14T17:10:17.474Z,6.90
2019-02-14T17:12:47.056Z,8.60
2019-02-14T17:15:16.631Z,8.27
2019-02-14T17:17:46.284Z,5.77
2019-02-14T17:20:15.880Z,11.73
2019-02-14T17:22:45.609Z,9.73
2019-02-14T17:25:17.131Z,11.07
2019-02-14T17:27:46.529Z,13.13
2019-02-14T17:30:16.188Z,14.17
2019-02-14T17:32:45.867Z,11.10
2019-02-14T17:35:15.458Z,7.87
2019-02-14T17:37:45.043Z,8.70
2019-02-14T17:40:14.840Z,8.50
2019-02-14T17:42:44.471Z,10.67
2019-02-14T17:45:14.155Z,11.13
2019-02-14T17:47:44.170Z,8.77
2019-02-14T17:50:13.808Z,10.97
2019-02-14T17:52:43.409Z,12.33
2019-02-14T17:55:13.046Z,12.77
2019-02-14T17:57:42.656Z,11.63
2019-02-14T18:00:13.315Z,11.87
2019-02-14T18:02:42.929Z,9.00
2019-02-14T18:05:12.538Z,11.70
2019-02-14T18:07:42.134Z,11.20
2019-02-14T18:10:12.845Z,10.53
2019-02-14T18:12:42.514Z,12.70
2019-02-14T18:15:15.216Z,14.40
2019-02-14T18:17:44.794Z,13.63
2019-02-14T18:20:33.647Z,10.50
2019-02-14T18:23:03.462Z,11.63
2019-02-14T18:25:33.088Z,10.23
2019-02-14T18:28:03.847Z,14.97
2019-02-14T18:30:33.514Z,15.07
2019-02-14T18:33:03.175Z,14.73
2019-02-14T18:35:32.950Z,16.00
2019-02-14T18:38:02.609Z,16.97
2019-02-14T18:40:32.214Z,11.80
2019-02-14T18:43:01.966Z,12.10
2019-02-14T18:45:32.030Z,9.57
2019-02-14T18:48:01.682Z,13.27
2019-02-14T18:50:31.468Z,17.23
2019-02-14T18:53:01.135Z,12.87
2019-02-14T18:55:30.806Z,12.63
2019-02-14T18:58:00.521Z,12.97
2019-02-14T19:00:30.250Z,15.47
2019-02-14T19:02:59.881Z,15.70
2019-02-14T19:05:29.524Z,14.90
2019-02-14T19:07:59.092Z,14.23
2019-02-14T19:10:28.738Z,18.20
2019-02-14T19:12:58.367Z,16.17
2019-02-14T19:15:28.013Z,14.57
2019-02-14T19:17:58.685Z,14.70
2019-02-14T19:20:28.361Z,15.87
2019-02-14T19:22:57.955Z,16.83
2019-02-14T19:25:29.517Z,12.83
2019-02-14T19:27:59.903Z,14.77
2019-02-14T19:30:30.169Z,15.07
2019-02-14T19:32:59.843Z,17.93
2019-02-14T19:35:29.424Z,15.60
2019-02-14T19:37:59.013Z,14.63
2019-02-14T19:40:28.663Z,15.20
2019-02-14T19:42:59.366Z,16.13
2019-02-14T19:45:36.267Z,17.80
2019-02-14T19:48:00.504Z,13.77
2019-02-14T19:50:30.086Z,14.70
2019-02-14T19:52:59.692Z,14.77
2019-02-14T19:55:29.307Z,9.27
2019-02-14T19:57:59.335Z,16.20
2019-02-14T20:00:29.091Z,14.10
2019-02-14T20:02:58.711Z,16.77
2019-02-14T20:05:28.279Z,13.30
2019-02-14T20:07:57.956Z,18.13
2019-02-14T20:10:27.689Z,13.90
2019-02-14T20:12:59.532Z,13.13
2019-02-14T20:15:36.818Z,13.30
2019-02-14T20:18:01.268Z,15.57
2019-02-14T20:20:32.033Z,16.20
2019-02-14T20:23:01.686Z,14.60
2019-02-14T20:25:31.272Z,17.17
2019-02-14T20:28:00.873Z,14.17
2019-02-14T20:30:30.523Z,15.03
2019-02-14T20:33:04.835Z,15.03
2019-02-14T20:35:31.268Z,16.80
2019-02-14T20:38:00.925Z,13.97
2019-02-14T20:40:32.039Z,13.77
2019-02-14T20:43:01.803Z,13.33
2019-02-14T20:45:31.534Z,12.53
2019-02-14T20:48:01.120Z,13.43
2019-02-14T20:50:30.741Z,15.30
2019-02-14T20:53:00.323Z,13.13
2019-02-14T20:55:29.941Z,12.93
2019-02-14T20:57:59.606Z,14.07
2019-02-14T21:00:33.619Z,6.00
2019-02-14T21:03:03.341Z,12.63
2019-02-14T21:05:32.944Z,10.77
2019-02-14T21:08:02.652Z,11.27
2019-02-14T21:10:32.238Z,11.87
2019-02-14T21:13:01.863Z,15.77
2019-02-14T21:15:31.448Z,15.13
2019-02-14T21:18:01.115Z,14.20
2019-02-14T21:20:30.693Z,14.30
2019-02-14T21:23:00.219Z,14.73
2019-02-14T21:25:29.931Z,11.43
2019-02-14T21:27:59.768Z,12.23
2019-02-14T21:30:34.945Z,15.47
2019-02-14T21:33:01.744Z,9.17
2019-02-14T21:35:31.368Z,13.57
2019-02-14T21:38:00.936Z,13.10
2019-02-14T21:40:30.648Z,11.37
2019-02-14T21:43:00.210Z,16.33
2019-02-14T21:45:31.030Z,11.47
2019-02-14T21:48:00.665Z,10.67
2019-02-14T21:50:30.327Z,11.73
2019-02-14T21:53:00.150Z,13.43
2019-02-14T21:55:29.809Z,14.33
2019-02-14T21:57:59.616Z,13.77
2019-02-14T22:00:29.796Z,10.07
2019-02-14T22:02:59.465Z,12.90
2019-02-14T22:05:29.049Z,13.47
2019-02-14T22:07:58.639Z,14.57
2019-02-14T22:10:28.242Z,15.30
2019-02-14T22:12:57.813Z,12.90
2019-02-14T22:15:29.010Z,15.47
2019-02-14T22:17:58.638Z,15.17
2019-02-14T22:20:28.285Z,12.33
2019-02-14T22:22:57.958Z,9.33
2019-02-14T22:25:27.549Z,16.93
2019-02-14T22:27:57.194Z,13.37
2019-02-14T22:30:26.798Z,18.53
2019-02-14T22:32:56.414Z,12.37
2019-02-14T22:35:26.007Z,14.53
2019-02-14T22:37:55.594Z,12.93
2019-02-14T22:40:25.326Z,11.90
2019-02-14T22:42:54.942Z,14.63
2019-02-14T22:45:24.524Z,13.70
2019-02-14T22:47:54.245Z,17.83
2019-02-14T22:50:23.928Z,12.60
2019-02-14T22:52:53.586Z,10.90
2019-02-14T22:55:23.249Z,14.87
2019-02-14T22:57:52.988Z,15.77
2019-02-14T23:00:37.583Z,9.80
2019-02-14T23:03:07.678Z,13.83
2019-02-14T23:05:37.399Z,9.40
2019-02-14T23:08:07.117Z,12.80
2019-02-14T23:10:36.938Z,9.10
2019-02-14T23:13:06.686Z,11.23
2019-02-14T23:15:36.440Z,14.50
2019-02-14T23:18:06.142Z,12.07
2019-02-14T23:20:35.923Z,14.00
2019-02-14T23:23:05.628Z,14.33
2019-02-14T23:25:35.346Z,12.57
2019-02-14T23:28:05.111Z,14.47
2019-02-14T23:30:34.814Z,10.57
2019-02-14T23:33:04.575Z,10.83
2019-02-14T23:35:35.304Z,17.07
2019-02-14T23:38:05.020Z,14.47
2019-02-14T23:40:34.763Z,12.40
2019-02-14T23:43:05.059Z,16.00
2019-02-14T23:45:34.823Z,13.17
2019-02-14T23:48:04.585Z,15.80
2019-02-14T23:50:34.324Z,15.20
2019-02-14T23:53:04.093Z,11.97
2019-02-14T23:55:33.808Z,18.30
2019-02-14T23:58:03.538Z,16.40
